sensor_id;sensor_type;location;lat;lon;timestamp;pressure;altitude;pressure_sealevel;temperature;humidity
15487;BME280;7845;53.698;10.078;2022-09-23T00:00:45;101605.25;;;16.37;91.99
15487;BME280;7845;53.698;10.078;2022-09-23T00:03:11;101602.78;;;16.30;92.23
15487;BME280;7845;53.698;10.078;2022-09-23T00:05:37;101605.50;;;16.24;93.12
15487;BME280;7845;53.698;10.078;2022-09-23T00:08:04;101598.44;;;16.26;92.75
15487;BME280;7845;53.698;10.078;2022-09-23T00:10:29;101599.47;;;16.17;92.86
15487;BME280;7845;53.698;10.078;2022-09-23T00:12:56;101589.88;;;16.15;93.63
15487;BME280;7845;53.698;10.078;2022-09-23T00:15:23;101593.53;;;16.06;93.94
15487;BME280;7845;53.698;10.078;2022-09-23T00:17:54;101585.47;;;16.15;93.34
15487;BME280;7845;53.698;10.078;2022-09-23T00:20:19;101586.44;;;16.10;93.30
15487;BME280;7845;53.698;10.078;2022-09-23T00:22:46;101591.63;;;16.16;93.36
15487;BME280;7845;53.698;10.078;2022-09-23T00:25:11;101587.19;;;16.16;93.03
15487;BME280;7845;53.698;10.078;2022-09-23T00:27:37;101590.69;;;16.18;92.21
15487;BME280;7845;53.698;10.078;2022-09-23T00:30:05;101584.75;;;16.05;92.49
15487;BME280;7845;53.698;10.078;2022-09-23T00:32:31;101582.06;;;16.09;92.99
15487;BME280;7845;53.698;10.078;2022-09-23T00:34:57;101582.94;;;16.09;92.77
15487;BME280;7845;53.698;10.078;2022-09-23T00:37:22;101578.50;;;16.11;92.26
15487;BME280;7845;53.698;10.078;2022-09-23T00:39:48;101577.56;;;16.14;91.70
15487;BME280;7845;53.698;10.078;2022-09-23T00:42:15;101574.06;;;16.15;92.09
15487;BME280;7845;53.698;10.078;2022-09-23T00:44:46;101570.81;;;16.00;92.26
15487;BME280;7845;53.698;10.078;2022-09-23T00:50:37;101566.31;;;16.05;91.58
15487;BME280;7845;53.698;10.078;2022-09-23T00:53:06;101569.00;;;16.01;91.74
15487;BME280;7845;53.698;10.078;2022-09-23T00:55:34;101573.56;;;15.93;92.26
15487;BME280;7845;53.698;10.078;2022-09-23T00:58:03;101563.13;;;15.88;92.06
15487;BME280;7845;53.698;10.078;2022-09-23T01:00:30;101556.94;;;15.89;92.65
15487;BME280;7845;53.698;10.078;2022-09-23T01:02:56;101558.72;;;15.87;91.81
15487;BME280;7845;53.698;10.078;2022-09-23T01:05:21;101557.69;;;15.96;92.22
15487;BME280;7845;53.698;10.078;2022-09-23T01:07:48;101547.22;;;15.93;92.20
15487;BME280;7845;53.698;10.078;2022-09-23T01:10:15;101547.16;;;15.42;93.92
15487;BME280;7845;53.698;10.078;2022-09-23T01:15:36;101545.47;;;15.35;97.44
15487;BME280;7845;53.698;10.078;2022-09-23T01:18:19;101549.13;;;15.28;97.34
15487;BME280;7845;53.698;10.078;2022-09-23T01:21:00;101544.75;;;15.27;97.38
15487;BME280;7845;53.698;10.078;2022-09-23T01:35:07;101526.28;;;15.32;96.51
15487;BME280;7845;53.698;10.078;2022-09-23T01:37:45;101525.31;;;15.37;96.76
15487;BME280;7845;53.698;10.078;2022-09-23T01:40:19;101525.56;;;15.19;96.93
15487;BME280;7845;53.698;10.078;2022-09-23T01:43:11;101527.19;;;15.28;97.26
15487;BME280;7845;53.698;10.078;2022-09-23T01:45:44;101518.38;;;15.32;96.31
15487;BME280;7845;53.698;10.078;2022-09-23T01:51:16;101516.59;;;15.34;96.09
15487;BME280;7845;53.698;10.078;2022-09-23T01:53:52;101514.00;;;15.31;96.55
15487;BME280;7845;53.698;10.078;2022-09-23T01:56:23;101512.34;;;15.24;96.58
15487;BME280;7845;53.698;10.078;2022-09-23T01:58:59;101507.81;;;15.33;96.07
15487;BME280;7845;53.698;10.078;2022-09-23T02:01:32;101509.63;;;15.30;96.07
15487;BME280;7845;53.698;10.078;2022-09-23T02:04:12;101511.47;;;15.23;96.69
15487;BME280;7845;53.698;10.078;2022-09-23T02:06:53;101507.13;;;15.21;96.45
15487;BME280;7845;53.698;10.078;2022-09-23T02:09:27;101500.25;;;15.14;96.57
15487;BME280;7845;53.698;10.078;2022-09-23T02:12:02;101502.88;;;15.14;96.94
15487;BME280;7845;53.698;10.078;2022-09-23T02:14:34;101498.66;;;15.01;97.36
15487;BME280;7845;53.698;10.078;2022-09-23T02:17:08;101493.16;;;15.17;97.09
15487;BME280;7845;53.698;10.078;2022-09-23T02:19:40;101489.69;;;15.17;96.76
15487;BME280;7845;53.698;10.078;2022-09-23T02:22:25;101490.66;;;15.11;97.76
15487;BME280;7845;53.698;10.078;2022-09-23T02:24:55;101494.06;;;15.15;96.96
15487;BME280;7845;53.698;10.078;2022-09-23T02:27:46;101486.13;;;15.18;95.98
15487;BME280;7845;53.698;10.078;2022-09-23T02:30:25;101480.97;;;15.13;96.49
15487;BME280;7845;53.698;10.078;2022-09-23T02:33:00;101477.50;;;15.11;96.04
15487;BME280;7845;53.698;10.078;2022-09-23T02:35:38;101470.50;;;15.10;96.06
15487;BME280;7845;53.698;10.078;2022-09-23T02:41:08;101470.72;;;14.93;97.03
15487;BME280;7845;53.698;10.078;2022-09-23T02:43:51;101471.53;;;14.99;98.12
15487;BME280;7845;53.698;10.078;2022-09-23T02:46:18;101476.94;;;14.89;98.12
15487;BME280;7845;53.698;10.078;2022-09-23T02:48:50;101462.75;;;15.00;97.42
15487;BME280;7845;53.698;10.078;2022-09-23T02:51:18;101466.28;;;14.97;97.99
15487;BME280;7845;53.698;10.078;2022-09-23T02:53:44;101464.53;;;14.99;97.27
15487;BME280;7845;53.698;10.078;2022-09-23T02:56:18;101462.75;;;15.00;97.25
15487;BME280;7845;53.698;10.078;2022-09-23T02:58:48;101454.16;;;14.88;97.88
15487;BME280;7845;53.698;10.078;2022-09-23T03:10:15;101456.78;;;14.88;98.36
15487;BME280;7845;53.698;10.078;2022-09-23T03:13:10;101449.63;;;14.96;97.66
15487;BME280;7845;53.698;10.078;2022-09-23T03:18:24;101446.97;;;15.00;97.93
15487;BME280;7845;53.698;10.078;2022-09-23T03:20:58;101443.44;;;15.02;97.71
15487;BME280;7845;53.698;10.078;2022-09-23T03:23:34;101438.19;;;15.02;97.32
15487;BME280;7845;53.698;10.078;2022-09-23T03:26:11;101438.91;;;15.12;97.13
15487;BME280;7845;53.698;10.078;2022-09-23T03:28:41;101438.00;;;15.13;96.97
15487;BME280;7845;53.698;10.078;2022-09-23T03:31:12;101435.41;;;15.11;97.38
15487;BME280;7845;53.698;10.078;2022-09-23T03:33:42;101432.72;;;15.14;97.16
15487;BME280;7845;53.698;10.078;2022-09-23T03:36:11;101433.78;;;15.04;97.75
15487;BME280;7845;53.698;10.078;2022-09-23T03:39:14;101428.47;;;15.07;97.69
15487;BME280;7845;53.698;10.078;2022-09-23T03:41:44;101424.88;;;15.13;98.32
15487;BME280;7845;53.698;10.078;2022-09-23T03:44:12;101423.94;;;15.17;98.06
15487;BME280;7845;53.698;10.078;2022-09-23T03:46:39;101421.25;;;15.20;97.72
15487;BME280;7845;53.698;10.078;2022-09-23T03:49:26;101413.31;;;15.21;97.06
15487;BME280;7845;53.698;10.078;2022-09-23T03:51:53;101416.00;;;15.20;96.81
15487;BME280;7845;53.698;10.078;2022-09-23T03:54:18;101422.13;;;15.19;97.03
15487;BME280;7845;53.698;10.078;2022-09-23T03:56:45;101420.28;;;15.24;97.31
15487;BME280;7845;53.698;10.078;2022-09-23T03:59:12;101417.59;;;15.27;96.61
15487;BME280;7845;53.698;10.078;2022-09-23T04:01:39;101410.59;;;15.27;96.48
15487;BME280;7845;53.698;10.078;2022-09-23T04:04:06;101405.38;;;15.26;96.98
15487;BME280;7845;53.698;10.078;2022-09-23T04:06:32;101398.22;;;15.34;96.63
15487;BME280;7845;53.698;10.078;2022-09-23T04:08:57;101405.34;;;15.27;96.46
15487;BME280;7845;53.698;10.078;2022-09-23T04:11:23;101405.41;;;15.23;96.63
15487;BME280;7845;53.698;10.078;2022-09-23T04:13:48;101401.00;;;15.25;97.01
15487;BME280;7845;53.698;10.078;2022-09-23T04:16:14;101397.38;;;15.32;96.27
15487;BME280;7845;53.698;10.078;2022-09-23T04:18:39;101393.94;;;15.28;96.41
15487;BME280;7845;53.698;10.078;2022-09-23T04:21:05;101392.06;;;15.33;96.46
15487;BME280;7845;53.698;10.078;2022-09-23T04:23:30;101392.13;;;15.32;96.05
15487;BME280;7845;53.698;10.078;2022-09-23T04:25:55;101386.88;;;15.30;96.03
15487;BME280;7845;53.698;10.078;2022-09-23T04:28:21;101388.63;;;15.31;96.59
15487;BME280;7845;53.698;10.078;2022-09-23T04:30:47;101379.84;;;15.29;96.16
15487;BME280;7845;53.698;10.078;2022-09-23T04:33:15;101377.13;;;15.35;95.66
15487;BME280;7845;53.698;10.078;2022-09-23T04:35:41;101374.38;;;15.43;95.43
15487;BME280;7845;53.698;10.078;2022-09-23T04:38:09;101375.41;;;15.34;95.22
15487;BME280;7845;53.698;10.078;2022-09-23T04:40:35;101377.19;;;15.32;95.97
15487;BME280;7845;53.698;10.078;2022-09-23T04:43:02;101372.66;;;15.40;95.25
15487;BME280;7845;53.698;10.078;2022-09-23T04:45:27;101377.84;;;15.45;95.20
15487;BME280;7845;53.698;10.078;2022-09-23T04:47:54;101371.69;;;15.44;94.91
15487;BME280;7845;53.698;10.078;2022-09-23T04:50:20;101369.06;;;15.46;95.05
15487;BME280;7845;53.698;10.078;2022-09-23T04:52:45;101369.91;;;15.48;94.72
15487;BME280;7845;53.698;10.078;2022-09-23T04:55:10;101376.94;;;15.46;94.76
15487;BME280;7845;53.698;10.078;2022-09-23T04:57:36;101374.31;;;15.47;94.37
15487;BME280;7845;53.698;10.078;2022-09-23T05:00:02;101370.78;;;15.48;94.45
15487;BME280;7845;53.698;10.078;2022-09-23T05:02:28;101364.66;;;15.46;94.88
15487;BME280;7845;53.698;10.078;2022-09-23T05:04:54;101363.72;;;15.50;94.93
15487;BME280;7845;53.698;10.078;2022-09-23T05:07:20;101366.28;;;15.55;94.56
15487;BME280;7845;53.698;10.078;2022-09-23T05:09:45;101369.75;;;15.57;94.44
15487;BME280;7845;53.698;10.078;2022-09-23T05:12:11;101366.19;;;15.61;93.66
15487;BME280;7845;53.698;10.078;2022-09-23T05:14:36;101368.88;;;15.58;94.20
15487;BME280;7845;53.698;10.078;2022-09-23T05:17:05;101365.38;;;15.58;94.11
15487;BME280;7845;53.698;10.078;2022-09-23T05:19:30;101370.69;;;15.55;94.06
15487;BME280;7845;53.698;10.078;2022-09-23T05:21:56;101373.31;;;15.55;94.16
15487;BME280;7845;53.698;10.078;2022-09-23T05:24:21;101371.66;;;15.49;94.00
15487;BME280;7845;53.698;10.078;2022-09-23T05:26:49;101371.63;;;15.50;94.18
15487;BME280;7845;53.698;10.078;2022-09-23T05:29:15;101362.03;;;15.46;94.07
15487;BME280;7845;53.698;10.078;2022-09-23T05:31:41;101362.97;;;15.42;95.11
15487;BME280;7845;53.698;10.078;2022-09-23T05:34:07;101368.19;;;15.47;95.23
15487;BME280;7845;53.698;10.078;2022-09-23T05:36:35;101361.22;;;15.43;95.67
15487;BME280;7845;53.698;10.078;2022-09-23T05:39:01;101362.88;;;15.50;95.11
15487;BME280;7845;53.698;10.078;2022-09-23T05:41:26;101358.44;;;15.52;95.57
15487;BME280;7845;53.698;10.078;2022-09-23T05:43:53;101359.34;;;15.51;95.75
15487;BME280;7845;53.698;10.078;2022-09-23T05:46:21;101364.69;;;15.45;96.87
15487;BME280;7845;53.698;10.078;2022-09-23T05:48:47;101363.91;;;15.40;97.56
15487;BME280;7845;53.698;10.078;2022-09-23T05:51:23;101360.34;;;15.42;97.82
15487;BME280;7845;53.698;10.078;2022-09-23T05:53:50;101368.97;;;15.52;97.71
15487;BME280;7845;53.698;10.078;2022-09-23T05:56:21;101365.47;;;15.52;97.58
15487;BME280;7845;53.698;10.078;2022-09-23T05:58:51;101366.22;;;15.58;97.06
15487;BME280;7845;53.698;10.078;2022-09-23T06:01:19;101352.19;;;15.58;97.29
15487;BME280;7845;53.698;10.078;2022-09-23T06:03:55;101356.34;;;15.69;97.13
15487;BME280;7845;53.698;10.078;2022-09-23T06:06:31;101351.03;;;15.72;96.56
15487;BME280;7845;53.698;10.078;2022-09-23T06:08:57;101354.47;;;15.76;96.41
15487;BME280;7845;53.698;10.078;2022-09-23T06:11:31;101351.84;;;15.76;96.02
15487;BME280;7845;53.698;10.078;2022-09-23T06:13:58;101359.00;;;15.69;96.70
15487;BME280;7845;53.698;10.078;2022-09-23T06:16:44;101358.69;;;15.84;96.77
15487;BME280;7845;53.698;10.078;2022-09-23T06:19:09;101355.88;;;15.92;95.68
15487;BME280;7845;53.698;10.078;2022-09-23T06:21:37;101357.50;;;15.99;95.05
15487;BME280;7845;53.698;10.078;2022-09-23T06:24:04;101353.06;;;16.02;94.37
15487;BME280;7845;53.698;10.078;2022-09-23T06:26:30;101351.31;;;16.01;94.73
15487;BME280;7845;53.698;10.078;2022-09-23T06:28:58;101353.13;;;15.98;94.62
15487;BME280;7845;53.698;10.078;2022-09-23T06:31:24;101356.63;;;15.98;94.89
15487;BME280;7845;53.698;10.078;2022-09-23T06:33:50;101352.19;;;16.02;94.64
15487;BME280;7845;53.698;10.078;2022-09-23T06:36:15;101358.22;;;16.07;94.28
15487;BME280;7845;53.698;10.078;2022-09-23T06:38:42;101356.38;;;16.11;93.67
15487;BME280;7845;53.698;10.078;2022-09-23T06:41:13;101359.91;;;16.11;94.01
15487;BME280;7845;53.698;10.078;2022-09-23T06:43:40;101359.91;;;16.11;93.90
15487;BME280;7845;53.698;10.078;2022-09-23T06:46:07;101352.06;;;16.08;93.92
15487;BME280;7845;53.698;10.078;2022-09-23T06:48:34;101353.75;;;16.12;93.35
15487;BME280;7845;53.698;10.078;2022-09-23T06:51:03;101351.88;;;16.17;93.56
15487;BME280;7845;53.698;10.078;2022-09-23T06:53:30;101349.06;;;16.25;93.32
15487;BME280;7845;53.698;10.078;2022-09-23T06:56:01;101350.06;;;16.19;92.47
15487;BME280;7845;53.698;10.078;2022-09-23T06:58:29;101351.63;;;16.28;92.43
15487;BME280;7845;53.698;10.078;2022-09-23T07:01:03;101347.22;;;16.28;92.88
15487;BME280;7845;53.698;10.078;2022-09-23T07:03:29;101349.91;;;16.27;92.78
15487;BME280;7845;53.698;10.078;2022-09-23T07:05:56;101344.59;;;16.28;92.75
15487;BME280;7845;53.698;10.078;2022-09-23T07:08:23;101352.41;;;16.33;92.98
15487;BME280;7845;53.698;10.078;2022-09-23T07:10:53;101357.59;;;16.36;92.82
15487;BME280;7845;53.698;10.078;2022-09-23T07:13:19;101353.06;;;16.42;93.02
15487;BME280;7845;53.698;10.078;2022-09-23T07:15:52;101360.00;;;16.46;92.30
15487;BME280;7845;53.698;10.078;2022-09-23T07:18:19;101363.25;;;16.61;92.36
15487;BME280;7845;53.698;10.078;2022-09-23T07:20:46;101354.25;;;16.68;92.32
15487;BME280;7845;53.698;10.078;2022-09-23T07:23:12;101348.63;;;16.83;92.33
15487;BME280;7845;53.698;10.078;2022-09-23T07:25:39;101343.94;;;16.94;91.91
15487;BME280;7845;53.698;10.078;2022-09-23T07:28:05;101345.69;;;16.95;91.34
15487;BME280;7845;53.698;10.078;2022-09-23T07:30:35;101342.03;;;17.00;90.51
15487;BME280;7845;53.698;10.078;2022-09-23T07:33:00;101347.88;;;17.13;90.92
15487;BME280;7845;53.698;10.078;2022-09-23T07:35:26;101354.84;;;17.15;89.95
15487;BME280;7845;53.698;10.078;2022-09-23T07:37:52;101353.66;;;17.27;90.09
15487;BME280;7845;53.698;10.078;2022-09-23T07:40:18;101356.94;;;17.35;89.63
15487;BME280;7845;53.698;10.078;2022-09-23T07:42:43;101349.91;;;17.36;88.17
15487;BME280;7845;53.698;10.078;2022-09-23T07:45:09;101355.09;;;17.39;88.89
15487;BME280;7845;53.698;10.078;2022-09-23T07:47:35;101355.88;;;17.42;88.88
15487;BME280;7845;53.698;10.078;2022-09-23T07:50:00;101361.25;;;17.39;88.81
15487;BME280;7845;53.698;10.078;2022-09-23T07:52:26;101346.03;;;17.49;88.48
15487;BME280;7845;53.698;10.078;2022-09-23T07:54:52;101353.16;;;17.47;88.25
15487;BME280;7845;53.698;10.078;2022-09-23T07:57:18;101348.47;;;17.58;88.86
15487;BME280;7845;53.698;10.078;2022-09-23T07:59:43;101347.44;;;17.63;88.14
15487;BME280;7845;53.698;10.078;2022-09-23T08:02:10;101357.97;;;17.65;88.45
15487;BME280;7845;53.698;10.078;2022-09-23T08:04:36;101353.34;;;17.72;88.31
15487;BME280;7845;53.698;10.078;2022-09-23T08:07:03;101362.78;;;17.80;88.07
15487;BME280;7845;53.698;10.078;2022-09-23T08:09:33;101356.53;;;17.84;88.08
15487;BME280;7845;53.698;10.078;2022-09-23T08:12:00;101363.28;;;17.94;86.88
15487;BME280;7845;53.698;10.078;2022-09-23T08:14:25;101350.00;;;17.97;86.93
15487;BME280;7845;53.698;10.078;2022-09-23T08:16:52;101352.56;;;18.00;86.87
15487;BME280;7845;53.698;10.078;2022-09-23T08:19:18;101355.09;;;18.03;86.66
15487;BME280;7845;53.698;10.078;2022-09-23T08:21:45;101346.13;;;18.09;85.94
15487;BME280;7845;53.698;10.078;2022-09-23T08:24:16;101341.81;;;18.06;86.38
15487;BME280;7845;53.698;10.078;2022-09-23T08:26:44;101348.84;;;18.06;85.55
15487;BME280;7845;53.698;10.078;2022-09-23T08:29:14;101339.09;;;18.08;85.37
15487;BME280;7845;53.698;10.078;2022-09-23T08:31:40;101342.72;;;18.05;85.08
15487;BME280;7845;53.698;10.078;2022-09-23T08:34:05;101343.34;;;18.13;85.78
15487;BME280;7845;53.698;10.078;2022-09-23T08:36:33;101342.34;;;18.17;85.32
15487;BME280;7845;53.698;10.078;2022-09-23T08:38:58;101344.19;;;18.14;84.84
15487;BME280;7845;53.698;10.078;2022-09-23T08:44:00;101334.84;;;18.32;85.05
15487;BME280;7845;53.698;10.078;2022-09-23T08:46:36;101331.81;;;18.45;83.97
15487;BME280;7845;53.698;10.078;2022-09-23T08:49:04;101336.13;;;18.48;83.31
15487;BME280;7845;53.698;10.078;2022-09-23T08:51:44;101327.97;;;18.55;83.32
15487;BME280;7845;53.698;10.078;2022-09-23T08:54:11;101323.38;;;18.62;83.16
15487;BME280;7845;53.698;10.078;2022-09-23T08:56:38;101322.38;;;18.64;82.54
15487;BME280;7845;53.698;10.078;2022-09-23T08:59:15;101326.81;;;18.64;82.42
15487;BME280;7845;53.698;10.078;2022-09-23T09:01:45;101324.06;;;18.67;82.40
15487;BME280;7845;53.698;10.078;2022-09-23T09:04:16;101320.59;;;18.66;82.24
15487;BME280;7845;53.698;10.078;2022-09-23T09:14:57;101304.34;;;19.03;80.36
15487;BME280;7845;53.698;10.078;2022-09-23T09:17:33;101317.56;;;19.03;80.48
15487;BME280;7845;53.698;10.078;2022-09-23T09:28:18;101295.66;;;19.24;78.93
15487;BME280;7845;53.698;10.078;2022-09-23T09:30:46;101298.78;;;19.35;78.92
15487;BME280;7845;53.698;10.078;2022-09-23T09:33:16;101299.53;;;19.41;79.52
15487;BME280;7845;53.698;10.078;2022-09-23T09:36:05;101296.56;;;19.50;78.50
15487;BME280;7845;53.698;10.078;2022-09-23T09:38:35;101292.75;;;19.32;78.54
15487;BME280;7845;53.698;10.078;2022-09-23T09:41:10;101294.44;;;19.34;79.23
15487;BME280;7845;53.698;10.078;2022-09-23T09:43:37;101294.44;;;19.34;79.17
15487;BME280;7845;53.698;10.078;2022-09-23T09:46:16;101290.53;;;19.20;79.44
15487;BME280;7845;53.698;10.078;2022-09-23T09:51:22;101292.03;;;19.02;80.18
15487;BME280;7845;53.698;10.078;2022-09-23T09:53:49;101280.16;;;18.88;80.72
15487;BME280;7845;53.698;10.078;2022-09-23T09:56:33;101277.31;;;18.94;81.14
15487;BME280;7845;53.698;10.078;2022-09-23T09:59:07;101275.19;;;19.05;81.29
15487;BME280;7845;53.698;10.078;2022-09-23T10:01:35;101267.94;;;19.10;80.88
15487;BME280;7845;53.698;10.078;2022-09-23T10:07:12;101266.66;;;19.21;81.12
15487;BME280;7845;53.698;10.078;2022-09-23T10:09:40;101267.44;;;19.23;81.40
15487;BME280;7845;53.698;10.078;2022-09-23T10:12:20;101266.81;;;19.17;80.85
15487;BME280;7845;53.698;10.078;2022-09-23T10:14:48;101264.88;;;19.22;80.77
15487;BME280;7845;53.698;10.078;2022-09-23T10:17:25;101257.69;;;19.25;80.25
15487;BME280;7845;53.698;10.078;2022-09-23T10:19:56;101251.13;;;19.35;80.31
15487;BME280;7845;53.698;10.078;2022-09-23T10:22:27;101255.41;;;19.41;81.43
15487;BME280;7845;53.698;10.078;2022-09-23T10:25:00;101257.06;;;19.44;81.05
15487;BME280;7845;53.698;10.078;2022-09-23T10:27:34;101248.69;;;19.56;80.77
15487;BME280;7845;53.698;10.078;2022-09-23T10:30:09;101246.13;;;19.76;79.15
15487;BME280;7845;53.698;10.078;2022-09-23T10:32:46;101247.13;;;19.95;78.63
15487;BME280;7845;53.698;10.078;2022-09-23T10:35:19;101245.81;;;20.07;77.71
15487;BME280;7845;53.698;10.078;2022-09-23T10:37:57;101245.38;;;20.17;76.61
15487;BME280;7845;53.698;10.078;2022-09-23T10:40:38;101243.91;;;20.33;76.51
15487;BME280;7845;53.698;10.078;2022-09-23T10:47:35;101243.78;;;20.78;74.84
15487;BME280;7845;53.698;10.078;2022-09-23T10:49:48;101239.34;;;20.99;74.33
15487;BME280;7845;53.698;10.078;2022-09-23T10:55:41;101232.78;;;21.28;72.54
15487;BME280;7845;53.698;10.078;2022-09-23T11:01:08;101229.16;;;21.49;71.26
15487;BME280;7845;53.698;10.078;2022-09-23T11:03:58;101220.41;;;21.66;70.56
15487;BME280;7845;53.698;10.078;2022-09-23T11:06:58;101223.72;;;21.71;69.37
15487;BME280;7845;53.698;10.078;2022-09-23T11:12:30;101222.78;;;21.72;67.19
15487;BME280;7845;53.698;10.078;2022-09-23T11:24:22;101197.69;;;21.97;67.89
15487;BME280;7845;53.698;10.078;2022-09-23T11:30:05;101194.19;;;22.14;67.80
15487;BME280;7845;53.698;10.078;2022-09-23T11:35:15;101188.59;;;22.01;68.10
15487;BME280;7845;53.698;10.078;2022-09-23T11:41:32;101183.38;;;22.00;68.19
15487;BME280;7845;53.698;10.078;2022-09-23T11:44:27;101180.56;;;22.03;66.93
15487;BME280;7845;53.698;10.078;2022-09-23T11:46:59;101177.22;;;22.17;68.41
15487;BME280;7845;53.698;10.078;2022-09-23T11:49:41;101174.66;;;22.15;68.05
15487;BME280;7845;53.698;10.078;2022-09-23T11:52:13;101170.41;;;22.11;67.60
15487;BME280;7845;53.698;10.078;2022-09-23T11:54:54;101177.47;;;22.12;67.78
15487;BME280;7845;53.698;10.078;2022-09-23T11:57:34;101168.75;;;22.09;67.01
15487;BME280;7845;53.698;10.078;2022-09-23T12:00:05;101166.81;;;22.12;67.35
15487;BME280;7845;53.698;10.078;2022-09-23T12:02:56;101158.44;;;22.02;65.89
15487;BME280;7845;53.698;10.078;2022-09-23T12:05:27;101158.50;;;22.01;65.82
15487;BME280;7845;53.698;10.078;2022-09-23T12:07:58;101159.28;;;22.03;66.22
15487;BME280;7845;53.698;10.078;2022-09-23T12:10:52;101158.91;;;22.11;67.41
15487;BME280;7845;53.698;10.078;2022-09-23T12:13:43;101160.16;;;22.03;68.56
15487;BME280;7845;53.698;10.078;2022-09-23T12:22:12;101153.53;;;22.12;67.11
15487;BME280;7845;53.698;10.078;2022-09-23T12:25:27;101150.78;;;22.14;66.51
15487;BME280;7845;53.698;10.078;2022-09-23T12:28:00;101150.56;;;22.18;67.89
15487;BME280;7845;53.698;10.078;2022-09-23T12:30:29;101137.81;;;22.25;66.74
15487;BME280;7845;53.698;10.078;2022-09-23T12:33:24;101141.97;;;22.30;66.28
15487;BME280;7845;53.698;10.078;2022-09-23T12:35:53;101128.66;;;22.30;64.98
15487;BME280;7845;53.698;10.078;2022-09-23T12:38:22;101142.38;;;22.40;66.63
15487;BME280;7845;53.698;10.078;2022-09-23T12:40:51;101135.38;;;22.37;65.15
15487;BME280;7845;53.698;10.078;2022-09-23T12:43:27;101134.25;;;22.43;65.79
15487;BME280;7845;53.698;10.078;2022-09-23T12:46:06;101134.16;;;22.44;65.40
15487;BME280;7845;53.698;10.078;2022-09-23T12:48:46;101135.00;;;22.45;67.02
15487;BME280;7845;53.698;10.078;2022-09-23T12:51:15;101135.00;;;22.28;66.82
15487;BME280;7845;53.698;10.078;2022-09-23T12:53:50;101139.72;;;22.40;67.45
15487;BME280;7845;53.698;10.078;2022-09-23T13:01:18;101129.00;;;22.76;64.37
15487;BME280;7845;53.698;10.078;2022-09-23T13:03:45;101118.97;;;22.81;64.85
15487;BME280;7845;53.698;10.078;2022-09-23T13:06:39;101121.31;;;22.87;65.06
15487;BME280;7845;53.698;10.078;2022-09-23T13:09:19;101123.66;;;22.93;65.99
15487;BME280;7845;53.698;10.078;2022-09-23T13:11:47;101111.44;;;22.89;63.78
15487;BME280;7845;53.698;10.078;2022-09-23T13:14:16;101115.22;;;23.00;63.07
15487;BME280;7845;53.698;10.078;2022-09-23T13:16:45;101104.03;;;22.94;60.84
15487;BME280;7845;53.698;10.078;2022-09-23T13:27:12;101085.88;;;23.02;58.58
15487;BME280;7845;53.698;10.078;2022-09-23T13:29:42;101089.91;;;23.09;59.44
15487;BME280;7845;53.698;10.078;2022-09-23T13:32:15;101094.22;;;23.11;61.17
15487;BME280;7845;53.698;10.078;2022-09-23T13:34:45;101082.78;;;23.09;60.48
15487;BME280;7845;53.698;10.078;2022-09-23T13:37:19;101076.53;;;23.10;59.36
15487;BME280;7845;53.698;10.078;2022-09-23T13:39:45;101084.50;;;23.10;59.56
15487;BME280;7845;53.698;10.078;2022-09-23T13:42:28;101074.09;;;23.06;59.18
15487;BME280;7845;53.698;10.078;2022-09-23T13:44:55;101074.09;;;23.06;57.86
15487;BME280;7845;53.698;10.078;2022-09-23T13:47:27;101068.75;;;23.06;58.51
15487;BME280;7845;53.698;10.078;2022-09-23T13:49:54;101077.81;;;23.19;60.76
15487;BME280;7845;53.698;10.078;2022-09-23T13:52:30;101068.44;;;23.12;59.26
15487;BME280;7845;53.698;10.078;2022-09-23T13:54:58;101068.69;;;23.07;57.52
15487;BME280;7845;53.698;10.078;2022-09-23T13:57:29;101064.13;;;23.09;57.37
15487;BME280;7845;53.698;10.078;2022-09-23T14:00:17;101068.75;;;23.06;57.34
15487;BME280;7845;53.698;10.078;2022-09-23T14:02:43;101066.38;;;23.01;58.62
15487;BME280;7845;53.698;10.078;2022-09-23T14:05:12;101057.63;;;22.99;58.80
15487;BME280;7845;53.698;10.078;2022-09-23T14:07:38;101058.53;;;22.98;58.11
15487;BME280;7845;53.698;10.078;2022-09-23T14:10:05;101051.06;;;22.89;58.66
15487;BME280;7845;53.698;10.078;2022-09-23T14:12:36;101052.41;;;22.81;58.16
15487;BME280;7845;53.698;10.078;2022-09-23T14:15:03;101057.47;;;22.85;59.35
15487;BME280;7845;53.698;10.078;2022-09-23T14:17:29;101049.50;;;22.85;57.09
15487;BME280;7845;53.698;10.078;2022-09-23T14:19:54;101052.69;;;22.92;58.13
15487;BME280;7845;53.698;10.078;2022-09-23T14:22:25;101057.63;;;22.99;59.35
15487;BME280;7845;53.698;10.078;2022-09-23T14:24:51;101051.72;;;22.77;59.25
15487;BME280;7845;53.698;10.078;2022-09-23T14:27:26;101042.63;;;22.97;57.17
15487;BME280;7845;53.698;10.078;2022-09-23T14:29:53;101040.66;;;23.00;56.84
15487;BME280;7845;53.698;10.078;2022-09-23T14:32:22;101038.38;;;23.10;56.73
15487;BME280;7845;53.698;10.078;2022-09-23T14:40:24;101037.06;;;23.01;56.90
15487;BME280;7845;53.698;10.078;2022-09-23T14:43:25;101036.63;;;22.93;57.35
15487;BME280;7845;53.698;10.078;2022-09-23T14:45:55;101036.03;;;23.04;58.52
15487;BME280;7845;53.698;10.078;2022-09-23T14:48:29;101029.25;;;22.98;58.27
15487;BME280;7845;53.698;10.078;2022-09-23T14:51:01;101024.16;;;22.94;57.29
15487;BME280;7845;53.698;10.078;2022-09-23T14:53:35;101028.31;;;22.99;57.49
15487;BME280;7845;53.698;10.078;2022-09-23T14:56:11;101025.66;;;22.99;58.70
15487;BME280;7845;53.698;10.078;2022-09-23T14:58:41;101018.59;;;22.98;58.42
15487;BME280;7845;53.698;10.078;2022-09-23T15:03:48;101015.59;;;23.04;58.21
15487;BME280;7845;53.698;10.078;2022-09-23T15:06:14;101020.66;;;23.09;59.46
15487;BME280;7845;53.698;10.078;2022-09-23T15:08:43;101019.81;;;22.93;58.65